createdAt,value
2019-02-04T00:01:14.423Z,-0.50
2019-02-04T00:04:22.050Z,-0.46
2019-02-04T00:07:29.761Z,-0.48
2019-02-04T00:10:37.349Z,-0.48
2019-02-04T00:13:44.820Z,-0.48
2019-02-04T00:16:52.319Z,-0.44
2019-02-04T00:19:59.747Z,-0.54
2019-02-04T00:23:07.151Z,-0.66
2019-02-04T00:26:15.286Z,-0.74
2019-02-04T00:29:22.680Z,-0.77
2019-02-04T00:32:29.823Z,-0.69
2019-02-04T00:35:37.277Z,-0.65
2019-02-04T00:38:44.877Z,-0.66
2019-02-04T00:41:52.044Z,-0.61
2019-02-04T00:44:59.681Z,-0.60
2019-02-04T00:48:06.961Z,-0.51
2019-02-04T00:51:14.418Z,-0.54
2019-02-04T00:54:21.678Z,-0.57
2019-02-04T00:57:29.128Z,-0.65
2019-02-04T01:00:37.355Z,-0.59
2019-02-04T01:03:45.104Z,-0.63
2019-02-04T01:06:52.765Z,-0.53
2019-02-04T01:10:00.009Z,-0.56
2019-02-04T01:13:07.461Z,-0.59
2019-02-04T01:16:14.850Z,-0.53
2019-02-04T01:19:22.219Z,-0.60
2019-02-04T01:22:29.630Z,-0.62
2019-02-04T01:25:36.990Z,-0.60
2019-02-04T01:28:44.312Z,-0.60
2019-02-04T01:31:51.560Z,-0.64
2019-02-04T01:34:59.011Z,-0.55
2019-02-04T01:38:06.280Z,-0.58
2019-02-04T01:41:14.501Z,-0.63
2019-02-04T01:44:21.985Z,-0.71
2019-02-04T01:47:32.402Z,-0.72
2019-02-04T01:50:39.823Z,-0.65
2019-02-04T01:53:47.214Z,-0.66
2019-02-04T01:56:54.600Z,-0.67
2019-02-04T02:00:03.597Z,-0.69
2019-02-04T02:03:11.229Z,-0.73
2019-02-04T02:06:18.769Z,-0.76
2019-02-04T02:09:26.059Z,-0.79
2019-02-04T02:12:33.694Z,-0.79
2019-02-04T02:15:41.184Z,-0.89
2019-02-04T02:18:48.489Z,-0.89
2019-02-04T02:21:55.991Z,-0.87
2019-02-04T02:25:04.352Z,-0.87
2019-02-04T02:28:12.317Z,-0.92
2019-02-04T02:31:19.724Z,-0.99
2019-02-04T02:34:27.806Z,-1.12
2019-02-04T02:37:35.353Z,-1.08
2019-02-04T02:40:42.891Z,-1.15
2019-02-04T02:43:50.629Z,-1.09
2019-02-04T02:46:58.360Z,-1.20
2019-02-04T02:50:07.005Z,-1.22
2019-02-04T02:53:14.798Z,-1.25
2019-02-04T02:56:22.579Z,-1.14
2019-02-04T02:59:30.544Z,-1.14
2019-02-04T03:02:37.959Z,-1.15
2019-02-04T03:05:45.527Z,-1.09
2019-02-04T03:08:53.228Z,-1.06
2019-02-04T03:12:00.622Z,-1.11
2019-02-04T03:15:09.130Z,-1.11
2019-02-04T03:18:16.661Z,-1.11
2019-02-04T03:21:24.070Z,-1.03
2019-02-04T03:24:31.388Z,-1.09
2019-02-04T03:27:38.990Z,-1.10
2019-02-04T03:30:46.513Z,-1.17
2019-02-04T03:33:54.043Z,-1.07
2019-02-04T03:37:04.670Z,-1.08
2019-02-04T03:40:14.660Z,-1.03
2019-02-04T03:43:22.221Z,-1.06
2019-02-04T03:46:30.272Z,-1.00
2019-02-04T03:49:37.714Z,-1.07
2019-02-04T03:52:45.550Z,-1.03
2019-02-04T03:55:53.469Z,-0.98
2019-02-04T03:59:01.357Z,-0.98
2019-02-04T04:02:09.260Z,-0.99
2019-02-04T04:05:16.933Z,-0.96
2019-02-04T04:08:24.743Z,-0.93
2019-02-04T04:11:32.528Z,-1.00
2019-02-04T04:14:40.062Z,-0.94
2019-02-04T04:17:47.840Z,-0.94
2019-02-04T04:20:56.167Z,-0.98
2019-02-04T04:24:03.987Z,-1.06
2019-02-04T04:27:11.602Z,-1.01
2019-02-04T04:30:24.504Z,-0.97
2019-02-04T04:33:32.396Z,-1.00
2019-02-04T04:36:40.616Z,-1.02
2019-02-04T04:39:47.936Z,-1.02
2019-02-04T04:42:55.418Z,-0.94
2019-02-04T04:46:03.250Z,-1.00
2019-02-04T04:49:10.999Z,-1.04
2019-02-04T04:52:19.103Z,-1.27
2019-02-04T04:55:26.783Z,-1.37
2019-02-04T04:58:34.628Z,-1.34
2019-02-04T05:01:42.462Z,-1.24
2019-02-04T05:04:52.771Z,-1.14
2019-02-04T05:08:01.043Z,-1.18
2019-02-04T05:11:08.599Z,-1.19
2019-02-04T05:14:16.519Z,-1.12
2019-02-04T05:17:26.803Z,-1.17
2019-02-04T05:20:34.759Z,-1.10
2019-02-04T05:23:42.195Z,-1.10
2019-02-04T05:26:49.660Z,-1.10
2019-02-04T05:29:57.248Z,-1.03
2019-02-04T05:33:07.171Z,-1.01
2019-02-04T05:36:17.270Z,-0.96
2019-02-04T05:39:25.768Z,-0.91
2019-02-04T05:42:34.701Z,-0.92
2019-02-04T05:45:42.762Z,-0.95
2019-02-04T05:48:50.868Z,-0.76
2019-02-04T05:51:59.980Z,-0.81
2019-02-04T05:55:08.267Z,-0.93
2019-02-04T05:58:16.197Z,-1.05
2019-02-04T06:01:24.331Z,-1.13
2019-02-04T06:04:31.866Z,-1.14
2019-02-04T06:07:40.120Z,-1.12
2019-02-04T06:10:48.335Z,-1.12
2019-02-04T06:13:55.765Z,-1.07
2019-02-04T06:17:03.828Z,-1.09
2019-02-04T06:20:16.670Z,-1.09
2019-02-04T06:23:24.549Z,-0.92
2019-02-04T06:26:32.124Z,-0.92
2019-02-04T06:29:40.082Z,-0.84
2019-02-04T06:32:47.781Z,-0.91
2019-02-04T06:35:56.010Z,-1.06
2019-02-04T06:39:11.527Z,-1.03
2019-02-04T06:42:19.084Z,-0.99
2019-02-04T06:45:31.849Z,-0.99
2019-02-04T06:48:40.048Z,-0.98
2019-02-04T06:51:47.659Z,-0.85
2019-02-04T06:54:58.440Z,-0.76
2019-02-04T06:58:06.481Z,-0.79
2019-02-04T07:01:14.491Z,-0.80
2019-02-04T07:04:22.092Z,-0.80
2019-02-04T07:07:30.109Z,-0.70
2019-02-04T07:10:37.667Z,-0.63
2019-02-04T07:13:45.129Z,-0.56
2019-02-04T07:16:52.699Z,-0.54
2019-02-04T07:20:00.662Z,-0.44
2019-02-04T07:23:08.885Z,-0.29
2019-02-04T07:26:17.201Z,-0.27
2019-02-04T07:29:24.988Z,-0.20
2019-02-04T07:32:32.883Z,-0.03
2019-02-04T07:35:41.700Z,0.00
2019-02-04T07:38:49.937Z,0.04
2019-02-04T07:41:57.462Z,0.02
2019-02-04T07:45:07.763Z,0.15
2019-02-04T07:48:15.286Z,0.22
2019-02-04T07:51:22.865Z,0.32
2019-02-04T07:54:30.789Z,0.43
2019-02-04T07:57:38.588Z,0.49
2019-02-04T08:00:46.390Z,0.55
2019-02-04T08:03:54.519Z,0.63
2019-02-04T08:07:02.308Z,0.73
2019-02-04T08:10:10.435Z,0.73
2019-02-04T08:13:18.564Z,0.90
2019-02-04T08:16:38.548Z,1.13
2019-02-04T08:19:47.569Z,1.25
2019-02-04T08:22:55.602Z,1.15
2019-02-04T08:26:03.238Z,1.02
2019-02-04T08:29:11.178Z,0.96
2019-02-04T08:32:18.843Z,0.97
2019-02-04T08:35:27.426Z,0.93
2019-02-04T08:38:34.931Z,0.92
2019-02-04T08:41:42.504Z,0.87
2019-02-04T08:44:50.091Z,0.84
2019-02-04T08:47:57.945Z,0.83
2019-02-04T08:51:05.564Z,0.87
2019-02-04T08:54:13.940Z,0.95
2019-02-04T08:57:22.072Z,0.96
2019-02-04T09:00:30.058Z,0.93
2019-02-04T09:03:37.862Z,1.02
2019-02-04T09:06:48.441Z,1.02
2019-02-04T09:09:55.958Z,1.17
2019-02-04T09:13:03.668Z,1.15
2019-02-04T09:16:11.251Z,1.22
2019-02-04T09:19:19.015Z,1.26
2019-02-04T09:22:26.568Z,1.40
2019-02-04T09:25:34.499Z,1.48
2019-02-04T09:28:42.082Z,1.47
2019-02-04T09:31:49.799Z,1.50
2019-02-04T09:34:57.539Z,1.54
2019-02-04T09:38:05.342Z,1.59
2019-02-04T09:41:13.337Z,1.70
2019-02-04T09:44:21.043Z,1.79
2019-02-04T09:47:30.413Z,1.79
2019-02-04T09:50:38.730Z,1.92
2019-02-04T09:53:46.939Z,1.93
2019-02-04T09:56:57.198Z,2.10
2019-02-04T10:00:06.067Z,2.11
2019-02-04T10:03:13.929Z,2.02
2019-02-04T10:06:21.662Z,2.16
2019-02-04T10:09:29.251Z,2.40
2019-02-04T10:12:37.060Z,2.56
2019-02-04T10:15:45.850Z,2.32
2019-02-04T10:18:53.688Z,2.60
2019-02-04T10:22:01.364Z,2.86
2019-02-04T10:25:11.330Z,3.09
2019-02-04T10:28:21.680Z,3.48
2019-02-04T10:31:29.637Z,3.94
2019-02-04T10:34:36.973Z,4.01
2019-02-04T10:37:45.210Z,3.64
2019-02-04T10:40:55.803Z,3.43
2019-02-04T10:44:03.583Z,2.98
2019-02-04T10:47:11.397Z,2.96
2019-02-04T10:50:31.716Z,2.79
2019-02-04T10:53:39.466Z,2.82
2019-02-04T10:56:47.579Z,2.58
2019-02-04T10:59:56.259Z,2.65
2019-02-04T11:03:04.146Z,2.39
2019-02-04T11:06:12.139Z,2.83
2019-02-04T11:09:20.031Z,3.30
2019-02-04T11:12:27.820Z,3.86
2019-02-04T11:15:35.401Z,4.27
2019-02-04T11:18:43.148Z,4.14
2019-02-04T11:21:52.946Z,4.47
2019-02-04T11:25:00.892Z,4.71
2019-02-04T11:28:10.506Z,4.87
2019-02-04T11:31:17.942Z,5.37
2019-02-04T11:34:25.425Z,5.43
2019-02-04T11:37:33.063Z,5.39
2019-02-04T11:40:40.956Z,4.52
2019-02-04T11:43:51.817Z,3.60
2019-02-04T11:46:59.345Z,3.89
2019-02-04T11:50:08.209Z,4.23
2019-02-04T11:53:15.998Z,3.60
2019-02-04T11:56:24.046Z,3.01
2019-02-04T11:59:31.890Z,2.44
2019-02-04T12:02:40.040Z,2.06
2019-02-04T12:05:47.943Z,1.94
2019-02-04T12:08:55.661Z,1.82
2019-02-04T12:12:03.391Z,2.04
2019-02-04T12:15:14.306Z,2.36
2019-02-04T12:18:22.195Z,2.51
2019-02-04T12:21:29.707Z,2.46
2019-02-04T12:24:37.216Z,2.45
2019-02-04T12:27:44.935Z,2.84
2019-02-04T12:30:53.122Z,2.94
2019-02-04T12:34:00.671Z,2.48
2019-02-04T12:37:08.386Z,2.59
2019-02-04T12:40:16.293Z,2.62
2019-02-04T12:43:23.987Z,2.67
2019-02-04T12:46:31.841Z,2.59
2019-02-04T12:49:39.697Z,2.55
2019-02-04T12:52:47.552Z,2.75
2019-02-04T12:55:55.667Z,2.77
2019-02-04T12:59:03.681Z,2.77
2019-02-04T13:02:11.569Z,2.53
2019-02-04T13:05:32.106Z,2.44
2019-02-04T13:08:39.739Z,2.29
2019-02-04T13:11:47.687Z,2.11
2019-02-04T13:14:55.250Z,1.99
2019-02-04T13:18:03.664Z,1.81
2019-02-04T13:21:11.331Z,1.51
2019-02-04T13:24:18.872Z,1.35
2019-02-04T13:27:26.948Z,1.25
2019-02-04T13:30:35.360Z,1.38
2019-02-04T13:33:43.070Z,1.68
2019-02-04T13:36:51.257Z,2.17
2019-02-04T13:39:58.878Z,2.98
2019-02-04T13:43:07.359Z,3.94
2019-02-04T13:46:14.951Z,4.41
2019-02-04T13:49:22.476Z,4.66
2019-02-04T13:52:30.481Z,4.23
2019-02-04T13:55:38.647Z,4.04
2019-02-04T13:58:46.248Z,3.73
2019-02-04T14:01:53.861Z,3.15
2019-02-04T14:05:01.529Z,2.64
2019-02-04T14:08:09.253Z,2.35
2019-02-04T14:11:17.440Z,1.73
2019-02-04T14:14:25.018Z,1.44
2019-02-04T14:17:32.825Z,1.45
2019-02-04T14:20:40.455Z,1.60
2019-02-04T14:23:48.218Z,1.67
2019-02-04T14:26:55.993Z,1.80
2019-02-04T14:30:08.565Z,2.14
2019-02-04T14:33:16.957Z,2.33
2019-02-04T14:36:33.752Z,2.40
2019-02-04T14:39:42.085Z,2.19
2019-02-04T14:43:48.355Z,1.88
2019-02-04T14:47:31.000Z,1.74
2019-02-04T14:51:17.080Z,1.50
2019-02-04T14:55:40.350Z,1.39
2019-02-04T14:59:26.953Z,1.35
2019-02-04T15:03:20.154Z,1.43
2019-02-04T15:07:20.365Z,1.46
2019-02-04T15:10:58.358Z,1.41
2019-02-04T15:14:44.772Z,1.29
2019-02-04T15:18:38.559Z,1.16
2019-02-04T15:22:49.655Z,1.11
2019-02-04T15:26:57.464Z,0.92
2019-02-04T15:30:26.290Z,0.92
2019-02-04T15:34:14.244Z,0.66
2019-02-04T15:38:26.230Z,0.56
2019-02-04T15:42:32.330Z,0.49
2019-02-04T15:46:16.741Z,0.28
2019-02-04T15:50:26.629Z,0.09
2019-02-04T15:53:34.294Z,-0.03
2019-02-04T15:56:41.997Z,-0.03
2019-02-04T15:59:49.771Z,-0.11
2019-02-04T16:02:57.371Z,-0.14
2019-02-04T16:06:05.260Z,-0.16
2019-02-04T16:09:13.619Z,-0.12
2019-02-04T16:12:21.631Z,-0.23
2019-02-04T16:15:29.212Z,-0.13
2019-02-04T16:18:37.151Z,-0.17
2019-02-04T16:21:48.219Z,-0.19
2019-02-04T16:24:56.636Z,-0.25
2019-02-04T16:28:04.728Z,-0.24
2019-02-04T16:31:13.511Z,-0.18
2019-02-04T16:34:23.942Z,-0.22
2019-02-04T16:37:30.553Z,-0.18
2019-02-04T16:40:38.321Z,-0.29
2019-02-04T16:43:45.810Z,-0.18
2019-02-04T16:46:54.832Z,-0.17
2019-02-04T16:50:03.283Z,-0.19
2019-02-04T16:53:11.133Z,-0.22
2019-02-04T16:56:18.775Z,-0.28
2019-02-04T16:59:26.302Z,-0.26
2019-02-04T17:02:34.057Z,-0.24
2019-02-04T17:05:41.828Z,-0.18
2019-02-04T17:08:49.893Z,-0.22
2019-02-04T17:11:57.537Z,-0.28
2019-02-04T17:15:06.385Z,-0.34
2019-02-04T17:18:14.230Z,-0.38
2019-02-04T17:21:22.219Z,-0.46
2019-02-04T17:24:30.345Z,-0.43
2019-02-04T17:27:39.127Z,-0.65
2019-02-04T17:30:53.939Z,-0.74
2019-02-04T17:34:05.314Z,-0.85
2019-02-04T17:37:13.003Z,-0.91
2019-02-04T17:40:21.750Z,-1.09
2019-02-04T17:43:29.159Z,-1.20
2019-02-04T17:46:36.714Z,-1.35
2019-02-04T17:49:44.087Z,-1.45
2019-02-04T17:52:52.385Z,-1.55
2019-02-04T17:56:00.670Z,-1.72
2019-02-04T17:59:08.236Z,-1.85
2019-02-04T18:02:16.452Z,-1.92
2019-02-04T18:05:24.918Z,-1.96
2019-02-04T18:08:32.858Z,-2.11
2019-02-04T18:11:40.283Z,-2.20
2019-02-04T18:14:48.078Z,-2.07
2019-02-04T18:17:56.034Z,-2.08
2019-02-04T18:21:04.879Z,-2.20
2019-02-04T18:24:13.362Z,-2.22
2019-02-04T18:27:20.995Z,-2.24
2019-02-04T18:30:28.629Z,-2.23
2019-02-04T18:33:36.455Z,-2.19
2019-02-04T18:36:47.033Z,-2.25
2019-02-04T18:39:53.882Z,-2.26
2019-02-04T18:43:01.898Z,-2.33
2019-02-04T18:46:10.135Z,-2.26
2019-02-04T18:49:18.838Z,-2.31
2019-02-04T18:52:26.629Z,-2.25
2019-02-04T18:55:34.777Z,-2.42
2019-02-04T18:58:42.570Z,-2.43
2019-02-04T19:01:50.471Z,-2.46
2019-02-04T19:04:58.313Z,-2.69
2019-02-04T19:08:06.518Z,-2.66
2019-02-04T19:11:14.084Z,-2.51
2019-02-04T19:14:23.958Z,-2.50
2019-02-04T19:17:32.188Z,-2.53
2019-02-04T19:20:39.880Z,-2.30
2019-02-04T19:23:47.864Z,-2.29
2019-02-04T19:26:55.534Z,-2.27
2019-02-04T19:30:07.258Z,-2.08
2019-02-04T19:33:15.941Z,-1.86
2019-02-04T19:36:23.647Z,-1.72
2019-02-04T19:39:31.407Z,-1.62
2019-02-04T19:42:39.835Z,-1.59
2019-02-04T19:45:48.662Z,-1.52
2019-02-04T19:48:56.439Z,-1.41
2019-02-04T19:52:04.508Z,-1.36
2019-02-04T19:55:12.507Z,-1.36
2019-02-04T19:58:20.288Z,-1.33
2019-02-04T20:01:28.066Z,-1.32
2019-02-04T20:04:36.096Z,-1.32
2019-02-04T20:07:44.370Z,-1.28
2019-02-04T20:10:52.320Z,-1.27
2019-02-04T20:13:59.886Z,-1.33
2019-02-04T20:17:07.749Z,-1.25
2019-02-04T20:20:15.906Z,-1.21
2019-02-04T20:23:24.667Z,-1.22
2019-02-04T20:26:32.253Z,-1.30
2019-02-04T20:29:39.969Z,-1.23
2019-02-04T20:32:48.217Z,-1.15
2019-02-04T20:35:55.650Z,-1.20
2019-02-04T20:39:07.854Z,-1.09
2019-02-04T20:42:15.750Z,-1.10
2019-02-04T20:45:24.988Z,-1.08
2019-02-04T20:48:32.513Z,-0.99
2019-02-04T20:51:40.216Z,-1.08
2019-02-04T20:54:47.882Z,-1.09
2019-02-04T20:57:55.445Z,-1.08
2019-02-04T21:01:04.206Z,-1.04
2019-02-04T21:04:14.334Z,-1.18
2019-02-04T21:07:22.359Z,-1.13
2019-02-04T21:10:30.389Z,-0.98
2019-02-04T21:13:38.445Z,-1.00
2019-02-04T21:16:46.593Z,-0.93
2019-02-04T21:19:54.525Z,-0.95
2019-02-04T21:23:02.267Z,-1.06
2019-02-04T21:26:10.537Z,-1.03
2019-02-04T21:29:18.367Z,-0.95
2019-02-04T21:32:25.986Z,-0.97
2019-02-04T21:35:33.611Z,-0.95
2019-02-04T21:38:42.921Z,-0.91
2019-02-04T21:41:50.488Z,-0.87
2019-02-04T21:44:58.966Z,-0.82
2019-02-04T21:48:06.638Z,-0.86
2019-02-04T21:51:14.304Z,-0.82
2019-02-04T21:54:22.411Z,-0.87
2019-02-04T21:57:31.973Z,-0.81
2019-02-04T22:00:49.214Z,-0.85
2019-02-04T22:03:57.619Z,-0.82
2019-02-04T22:07:05.551Z,-0.84
2019-02-04T22:10:17.380Z,-0.77
2019-02-04T22:13:25.862Z,-0.76
2019-02-04T22:16:35.232Z,-0.76
2019-02-04T22:19:43.294Z,-0.81
2019-02-04T22:22:51.272Z,-0.84
2019-02-04T22:25:58.815Z,-0.85
2019-02-04T22:29:10.305Z,-0.90
2019-02-04T22:32:18.459Z,-0.95
2019-02-04T22:35:26.460Z,-0.91
2019-02-04T22:38:34.166Z,-0.97
2019-02-04T22:41:44.487Z,-1.03
2019-02-04T22:44:52.152Z,-1.02
2019-02-04T22:47:59.731Z,-1.05
2019-02-04T22:51:07.596Z,-1.06
2019-02-04T22:54:15.438Z,-1.01
2019-02-04T22:57:24.718Z,-1.04
2019-02-04T23:00:54.699Z,-1.15
2019-02-04T23:04:02.587Z,-1.14
2019-02-04T23:07:12.755Z,-1.25
2019-02-04T23:10:23.045Z,-1.23
2019-02-04T23:13:30.818Z,-1.19
2019-02-04T23:16:38.332Z,-1.11
2019-02-04T23:19:46.224Z,-1.09
2019-02-04T23:22:53.845Z,-0.98
2019-02-04T23:26:03.363Z,-1.09
2019-02-04T23:29:13.763Z,-1.25
2019-02-04T23:32:30.671Z,-1.25
2019-02-04T23:35:53.428Z,-1.08
2019-02-04T23:39:11.687Z,-1.21
2019-02-04T23:42:19.369Z,-1.13
2019-02-04T23:45:29.311Z,-1.09
2019-02-04T23:48:44.053Z,-1.01
2019-02-04T23:51:51.368Z,-1.07
2019-02-04T23:54:59.272Z,-1.32
2019-02-04T23:58:07.210Z,-1.31
